createdAt,value
2018-07-05T00:00:03.695Z,66.78
2018-07-05T00:02:51.205Z,67.62
2018-07-05T00:05:38.311Z,68.56
2018-07-05T00:08:25.290Z,69.61
2018-07-05T00:11:12.540Z,70.47
2018-07-05T00:24:46.337Z,70.60
2018-07-05T00:27:32.879Z,71.07
2018-07-05T00:30:19.341Z,71.55
2018-07-05T00:33:05.919Z,71.48
2018-07-05T00:35:52.551Z,71.94
2018-07-05T00:38:39.345Z,73.04
2018-07-05T00:41:26.093Z,73.49
2018-07-05T00:44:12.569Z,73.99
2018-07-05T00:46:59.253Z,74.45
2018-07-05T00:49:45.815Z,73.93
2018-07-05T00:52:32.781Z,73.89
2018-07-05T00:55:19.392Z,72.96
2018-07-05T00:58:05.963Z,72.74
2018-07-05T01:00:52.529Z,72.46
2018-07-05T01:03:39.130Z,72.68
2018-07-05T01:06:26.230Z,72.27
2018-07-05T01:09:13.499Z,71.21
2018-07-05T01:12:00.096Z,71.50
2018-07-05T01:14:46.636Z,71.52
2018-07-05T01:17:33.533Z,70.87
2018-07-05T01:20:20.306Z,71.15
2018-07-05T01:23:07.407Z,71.15
2018-07-05T01:25:54.455Z,71.61
2018-07-05T01:28:41.239Z,72.16
2018-07-05T01:31:27.933Z,72.87
2018-07-05T01:34:08.603Z,73.43
2018-07-05T01:36:55.037Z,74.60
2018-07-05T01:39:41.623Z,74.36
2018-07-05T01:42:28.343Z,74.42
2018-07-05T01:45:14.906Z,75.03
2018-07-05T01:48:01.594Z,75.78
2018-07-05T01:50:48.243Z,75.24
2018-07-05T01:53:34.781Z,74.84
2018-07-05T01:56:21.253Z,73.71
2018-07-05T01:59:07.573Z,73.43
2018-07-05T02:01:53.983Z,73.00
2018-07-05T02:04:40.433Z,72.78
2018-07-05T02:07:27.079Z,72.66
2018-07-05T02:10:13.647Z,72.00
2018-07-05T02:16:35.963Z,72.53
2018-07-05T02:19:23.084Z,72.46
2018-07-05T02:22:10.145Z,72.60
2018-07-05T02:24:57.336Z,72.32
2018-07-05T02:27:44.020Z,72.78
2018-07-05T02:30:30.622Z,72.48
2018-07-05T02:33:17.743Z,72.44
2018-07-05T02:36:04.946Z,72.06
2018-07-05T02:38:57.312Z,71.71
2018-07-05T02:41:43.994Z,72.18
2018-07-05T02:44:31.120Z,71.75
2018-07-05T02:47:18.144Z,71.49
2018-07-05T02:50:05.270Z,70.91
2018-07-05T02:52:52.566Z,70.87
2018-07-05T02:55:39.546Z,71.28
2018-07-05T02:58:26.023Z,70.81
2018-07-05T03:01:13.296Z,71.73
2018-07-05T03:03:59.863Z,71.63
2018-07-05T03:06:46.981Z,71.39
2018-07-05T03:09:33.996Z,71.41
2018-07-05T03:12:21.132Z,70.64
2018-07-05T03:15:07.810Z,70.89
2018-07-05T03:17:54.330Z,70.51
2018-07-05T03:20:41.617Z,70.20
2018-07-05T03:23:28.238Z,69.10
2018-07-05T03:26:14.766Z,69.16
2018-07-05T03:29:01.190Z,69.34
2018-07-05T03:31:48.145Z,69.39
2018-07-05T03:34:34.600Z,69.64
2018-07-05T03:37:21.134Z,69.31
2018-07-05T03:40:08.102Z,69.71
2018-07-05T03:42:54.896Z,69.99
2018-07-05T03:45:41.554Z,70.20
2018-07-05T03:48:28.355Z,70.02
2018-07-05T03:51:14.812Z,70.59
2018-07-05T03:54:01.344Z,70.49
2018-07-05T03:56:47.869Z,69.71
2018-07-05T03:59:34.300Z,69.35
2018-07-05T04:02:21.364Z,68.26
2018-07-05T04:05:08.487Z,67.51
2018-07-05T04:07:55.794Z,67.67
2018-07-05T04:10:43.126Z,68.52
2018-07-05T04:13:30.126Z,68.17
2018-07-05T04:16:17.794Z,68.86
2018-07-05T04:18:59.162Z,70.46
2018-07-05T04:21:46.129Z,71.00
2018-07-05T04:24:32.672Z,71.05
2018-07-05T04:27:19.636Z,72.14
2018-07-05T04:30:06.713Z,71.70
2018-07-05T04:32:53.350Z,72.81
2018-07-05T04:35:39.966Z,73.46
2018-07-05T04:38:27.245Z,75.79
2018-07-05T04:41:14.369Z,75.82
2018-07-05T04:44:01.007Z,75.90
2018-07-05T04:46:47.988Z,76.55
2018-07-05T04:49:34.555Z,76.27
2018-07-05T04:52:21.213Z,76.67
2018-07-05T04:55:07.896Z,77.27
2018-07-05T04:57:54.428Z,77.29
2018-07-05T05:00:41.110Z,78.25
2018-07-05T05:03:27.888Z,78.03
2018-07-05T05:06:14.450Z,78.37
2018-07-05T05:09:01.032Z,77.90
2018-07-05T05:11:47.659Z,78.11
2018-07-05T05:14:34.625Z,77.77
2018-07-05T05:17:21.154Z,78.19
2018-07-05T05:20:08.136Z,77.75
2018-07-05T05:22:54.828Z,78.30
2018-07-05T05:25:41.396Z,77.54
2018-07-05T05:28:28.062Z,77.45
2018-07-05T05:31:14.772Z,78.14
2018-07-05T05:33:55.292Z,77.82
2018-07-05T05:36:42.082Z,77.64
2018-07-05T05:39:29.303Z,77.49
2018-07-05T05:42:16.730Z,78.33
2018-07-05T05:45:03.878Z,78.09
2018-07-05T05:47:50.557Z,77.34
2018-07-05T05:50:37.167Z,78.04
2018-07-05T05:53:24.732Z,78.35
2018-07-05T05:56:11.278Z,78.20
2018-07-05T05:58:58.460Z,78.97
2018-07-05T06:01:45.362Z,78.50
2018-07-05T06:04:32.137Z,77.90
2018-07-05T06:07:19.257Z,78.00
2018-07-05T06:10:06.375Z,77.76
2018-07-05T06:12:53.829Z,76.33
2018-07-05T06:15:40.389Z,77.62
2018-07-05T06:18:26.990Z,78.21
2018-07-05T06:21:14.433Z,78.61
2018-07-05T06:24:01.871Z,77.18
2018-07-05T06:26:48.417Z,78.80
2018-07-05T06:29:35.041Z,80.97
2018-07-05T06:32:21.781Z,81.21
2018-07-05T06:35:08.543Z,81.52
2018-07-05T06:37:54.995Z,81.75
2018-07-05T06:40:41.491Z,83.63
2018-07-05T06:43:27.929Z,83.61
2018-07-05T06:46:14.799Z,83.24
2018-07-05T06:49:01.831Z,83.22
2018-07-05T06:51:48.459Z,82.93
2018-07-05T06:54:35.075Z,82.94
2018-07-05T06:57:21.688Z,83.47
2018-07-05T07:00:08.173Z,82.46
2018-07-05T07:02:54.811Z,82.01
2018-07-05T07:05:41.391Z,80.79
2018-07-05T07:08:28.320Z,80.54
2018-07-05T07:11:14.725Z,78.84
2018-07-05T07:14:01.561Z,78.57
2018-07-05T07:16:48.605Z,78.56
2018-07-05T07:19:35.773Z,78.09
2018-07-05T07:22:22.808Z,76.94
2018-07-05T07:25:09.954Z,74.59
2018-07-05T07:27:57.404Z,72.21
2018-07-05T07:30:44.491Z,71.51
2018-07-05T07:33:31.611Z,69.59
2018-07-05T07:36:18.639Z,68.33
2018-07-05T07:39:06.015Z,68.25
2018-07-05T07:41:46.267Z,67.88
2018-07-05T07:44:15.397Z,66.63
2018-07-05T07:46:44.267Z,67.77
2018-07-05T07:49:12.845Z,66.55
2018-07-05T07:51:41.344Z,67.63
2018-07-05T07:54:09.865Z,69.02
2018-07-05T07:56:38.351Z,69.86
2018-07-05T07:59:06.880Z,70.26
2018-07-05T08:01:35.408Z,70.06
2018-07-05T08:04:03.895Z,71.70
2018-07-05T08:06:32.379Z,72.31
2018-07-05T08:09:00.893Z,72.43
2018-07-05T08:11:29.379Z,71.28
2018-07-05T08:13:58.831Z,71.50
2018-07-05T08:16:27.305Z,71.41
2018-07-05T08:18:55.799Z,70.27
2018-07-05T08:21:24.281Z,70.28
2018-07-05T08:23:52.765Z,70.29
2018-07-05T08:26:21.239Z,69.65
2018-07-05T08:28:50.057Z,69.87
2018-07-05T08:31:18.559Z,69.79
2018-07-05T08:33:47.211Z,71.07
2018-07-05T08:36:15.810Z,71.65
2018-07-05T08:38:44.314Z,72.29
2018-07-05T08:41:12.837Z,73.74
2018-07-05T08:43:41.342Z,73.40
2018-07-05T08:46:09.832Z,73.71
2018-07-05T08:48:38.329Z,73.79
2018-07-05T08:51:06.881Z,73.32
2018-07-05T08:53:35.527Z,73.10
2018-07-05T08:56:04.065Z,72.41
2018-07-05T08:58:32.534Z,72.12
2018-07-05T09:01:01.038Z,71.38
2018-07-05T09:03:29.522Z,71.12
2018-07-05T09:05:57.980Z,70.66
2018-07-05T09:08:26.454Z,71.04
2018-07-05T09:10:54.946Z,69.74
2018-07-05T09:13:23.420Z,69.38
2018-07-05T09:15:51.924Z,70.84
2018-07-05T09:18:20.489Z,70.57
2018-07-05T09:20:49.486Z,70.17
2018-07-05T09:23:18.104Z,71.08
2018-07-05T09:25:46.686Z,71.84
2018-07-05T09:28:15.214Z,72.61
2018-07-05T09:30:43.690Z,73.65
2018-07-05T09:33:12.135Z,73.90
2018-07-05T09:35:40.742Z,74.71
2018-07-05T09:38:09.249Z,75.50
2018-07-05T09:40:37.763Z,75.82
2018-07-05T09:43:06.327Z,76.75
2018-07-05T09:45:34.859Z,76.53
2018-07-05T09:48:03.354Z,77.03
2018-07-05T09:50:31.844Z,75.89
2018-07-05T09:53:00.370Z,75.40
2018-07-05T09:55:28.893Z,74.98
2018-07-05T09:57:57.419Z,74.92
2018-07-05T10:00:32.036Z,75.88
2018-07-05T10:03:00.535Z,75.29
2018-07-05T10:05:29.100Z,75.60
2018-07-05T10:07:57.583Z,75.50
2018-07-05T10:10:26.085Z,75.16
2018-07-05T10:12:54.805Z,75.84
2018-07-05T10:15:23.243Z,76.49
2018-07-05T10:17:51.810Z,77.03
2018-07-05T10:20:21.138Z,77.34
2018-07-05T10:22:49.652Z,77.20
2018-07-05T10:25:18.396Z,76.95
2018-07-05T10:27:46.860Z,77.06
2018-07-05T10:30:33.882Z,76.94
2018-07-05T10:33:20.974Z,75.22
2018-07-05T10:35:49.454Z,75.51
2018-07-05T10:38:18.030Z,76.04
2018-07-05T10:41:04.965Z,75.46
2018-07-05T10:43:52.002Z,75.16
2018-07-05T10:46:39.262Z,75.14
2018-07-05T10:49:26.270Z,74.99
2018-07-05T10:52:13.512Z,75.81
2018-07-05T10:55:00.620Z,76.14
2018-07-05T10:57:47.668Z,75.45
2018-07-05T11:00:35.728Z,75.84
2018-07-05T11:03:22.811Z,77.18
2018-07-05T11:06:09.881Z,76.77
2018-07-05T11:08:56.922Z,75.07
2018-07-05T11:11:43.910Z,75.62
2018-07-05T11:14:31.020Z,74.43
2018-07-05T11:17:18.402Z,74.86
2018-07-05T11:20:05.456Z,72.27
2018-07-05T11:22:52.720Z,72.36
2018-07-05T11:25:39.935Z,72.92
2018-07-05T11:28:27.018Z,72.65
2018-07-05T11:31:14.044Z,73.25
2018-07-05T11:34:01.004Z,71.05
2018-07-05T11:36:48.064Z,71.24
2018-07-05T11:39:35.005Z,70.60
2018-07-05T11:42:22.226Z,70.48
2018-07-05T11:45:09.639Z,68.25
2018-07-05T11:47:57.252Z,68.40
2018-07-05T11:50:44.634Z,69.32
2018-07-05T11:53:31.748Z,67.48
2018-07-05T11:56:19.826Z,67.44
2018-07-05T11:59:06.878Z,67.04
2018-07-05T12:01:54.057Z,67.64
2018-07-05T12:04:41.436Z,66.39
2018-07-05T12:07:28.872Z,67.05
2018-07-05T12:10:15.878Z,66.56
2018-07-05T12:13:02.932Z,66.73
2018-07-05T12:15:50.756Z,65.42
2018-07-05T12:18:38.033Z,65.43
2018-07-05T12:21:24.865Z,64.09
2018-07-05T12:24:11.924Z,61.71
2018-07-05T12:26:59.128Z,62.41
2018-07-05T12:29:46.229Z,61.89
2018-07-05T12:32:33.430Z,60.28
2018-07-05T12:35:20.876Z,61.14
2018-07-05T12:38:08.286Z,62.32
2018-07-05T12:40:55.569Z,60.12
2018-07-05T12:43:42.818Z,59.40
2018-07-05T12:46:30.128Z,59.38
2018-07-05T12:49:17.498Z,58.80
2018-07-05T12:52:04.573Z,55.50
2018-07-05T12:54:51.684Z,54.76
2018-07-05T12:57:39.003Z,56.55
2018-07-05T13:00:26.347Z,57.55
2018-07-05T13:03:13.362Z,56.95
2018-07-05T13:06:00.567Z,57.43
2018-07-05T13:08:47.814Z,58.10
2018-07-05T13:11:35.270Z,58.10
2018-07-05T13:14:23.015Z,57.86
2018-07-05T13:17:10.065Z,56.08
2018-07-05T13:19:57.279Z,57.01
2018-07-05T13:22:44.501Z,57.53
2018-07-05T13:25:31.962Z,57.15
2018-07-05T13:28:19.058Z,57.96
2018-07-05T13:31:06.221Z,57.55
2018-07-05T13:33:53.499Z,59.02
2018-07-05T13:36:40.655Z,59.68
2018-07-05T13:39:27.863Z,61.27
2018-07-05T13:42:15.401Z,62.57
2018-07-05T13:45:02.627Z,62.33
2018-07-05T13:47:49.825Z,63.05
2018-07-05T13:50:36.855Z,61.83
2018-07-05T13:53:24.133Z,61.17
2018-07-05T13:56:11.259Z,60.40
2018-07-05T13:58:58.373Z,61.65
2018-07-05T14:01:46.476Z,59.92
2018-07-05T14:04:33.817Z,59.99
2018-07-05T14:07:20.863Z,59.80
2018-07-05T14:10:07.995Z,60.43
2018-07-05T14:12:55.176Z,61.24
2018-07-05T14:15:42.193Z,61.81
2018-07-05T14:18:29.155Z,61.93
2018-07-05T14:21:16.497Z,62.66
2018-07-05T14:24:03.694Z,63.27
2018-07-05T14:26:50.793Z,62.34
2018-07-05T14:29:37.875Z,61.65
2018-07-05T14:32:24.944Z,61.25
2018-07-05T14:35:12.115Z,60.79
2018-07-05T14:37:59.213Z,58.03
2018-07-05T14:40:46.435Z,58.35
2018-07-05T14:43:33.929Z,58.32
2018-07-05T14:46:20.953Z,59.68
2018-07-05T14:49:08.173Z,59.31
2018-07-05T14:51:55.309Z,58.56
2018-07-05T14:54:42.513Z,60.44
2018-07-05T14:57:29.489Z,61.60
2018-07-05T15:00:17.049Z,62.69
2018-07-05T15:03:04.212Z,64.34
2018-07-05T15:05:51.436Z,64.58
2018-07-05T15:08:38.905Z,64.95
2018-07-05T15:11:26.148Z,65.45
2018-07-05T15:14:14.654Z,65.36
2018-07-05T15:17:01.793Z,66.12
2018-07-05T15:19:48.583Z,66.37
2018-07-05T15:22:35.780Z,67.21
2018-07-05T15:25:22.853Z,67.57
2018-07-05T15:28:09.934Z,68.01
2018-07-05T15:30:57.206Z,68.67
2018-07-05T15:33:44.230Z,67.08
2018-07-05T15:36:31.402Z,66.43
2018-07-05T15:39:18.728Z,65.58
2018-07-05T15:42:05.712Z,65.92
2018-07-05T15:44:53.003Z,65.99
2018-07-05T15:47:39.997Z,65.96
2018-07-05T15:50:27.152Z,66.60
2018-07-05T15:53:14.366Z,66.84
2018-07-05T15:56:01.729Z,66.94
2018-07-05T15:58:48.723Z,67.09
2018-07-05T16:01:35.697Z,67.23
2018-07-05T16:04:24.326Z,67.49
2018-07-05T16:07:11.288Z,67.73
2018-07-05T16:09:58.715Z,67.91
2018-07-05T16:12:46.472Z,68.20
2018-07-05T16:15:33.574Z,68.44
2018-07-05T16:18:20.617Z,69.09
2018-07-05T16:21:07.626Z,69.24
2018-07-05T16:23:54.708Z,67.79
2018-07-05T16:26:42.989Z,68.32
2018-07-05T16:29:30.214Z,67.11
2018-07-05T16:32:17.238Z,67.44
2018-07-05T16:35:04.476Z,66.78
2018-07-05T16:37:51.548Z,65.84
2018-07-05T16:40:38.626Z,64.77
2018-07-05T16:43:25.669Z,62.80
2018-07-05T16:46:13.076Z,63.18
2018-07-05T16:49:00.210Z,63.81
2018-07-05T16:51:47.408Z,64.31
2018-07-05T16:54:34.480Z,63.60
2018-07-05T16:57:22.334Z,63.58
2018-07-05T17:00:09.724Z,63.88
2018-07-05T17:02:57.062Z,64.12
2018-07-05T17:05:44.455Z,64.36
2018-07-05T17:08:31.596Z,63.10
2018-07-05T17:11:18.813Z,63.53
2018-07-05T17:14:05.910Z,63.83
2018-07-05T17:16:53.069Z,64.72
2018-07-05T17:19:40.299Z,63.87
2018-07-05T17:22:27.354Z,63.80
2018-07-05T17:25:14.525Z,64.34
2018-07-05T17:28:01.693Z,64.58
2018-07-05T17:30:48.812Z,65.42
2018-07-05T17:33:35.994Z,65.69
2018-07-05T17:36:23.191Z,65.56
2018-07-05T17:39:10.573Z,66.34
2018-07-05T17:41:57.925Z,65.70
2018-07-05T17:44:45.148Z,65.52
2018-07-05T17:47:32.362Z,65.43
2018-07-05T17:50:19.499Z,65.41
2018-07-05T17:53:06.604Z,65.47
2018-07-05T17:55:54.036Z,65.81
2018-07-05T17:58:41.593Z,65.72
2018-07-05T18:01:29.235Z,65.58
2018-07-05T18:04:16.300Z,65.63
2018-07-05T18:07:03.323Z,65.37
2018-07-05T18:09:50.250Z,65.43
2018-07-05T18:12:37.307Z,65.97
2018-07-05T18:15:25.196Z,66.67
2018-07-05T18:18:12.156Z,67.51
2018-07-05T18:20:59.655Z,67.50
2018-07-05T18:23:47.148Z,67.89
2018-07-05T18:26:34.162Z,68.23
2018-07-05T18:29:21.211Z,68.53
2018-07-05T18:32:08.325Z,69.08
2018-07-05T18:34:55.457Z,69.95
2018-07-05T18:37:43.160Z,70.46
2018-07-05T18:40:30.330Z,71.33
2018-07-05T18:43:18.080Z,72.26
2018-07-05T18:46:05.503Z,73.31
2018-07-05T18:48:52.585Z,73.95
2018-07-05T18:51:38.916Z,74.58
2018-07-05T18:54:25.810Z,74.88
2018-07-05T18:57:12.142Z,78.17
2018-07-05T18:59:58.682Z,81.82
2018-07-05T19:02:45.148Z,82.21
2018-07-05T19:05:31.671Z,82.00
2018-07-05T19:08:18.429Z,82.56
2018-07-05T19:11:05.036Z,82.24
2018-07-05T19:13:51.763Z,82.74
2018-07-05T19:16:38.543Z,83.04
2018-07-05T19:19:25.114Z,82.96
2018-07-05T19:22:11.756Z,83.09
2018-07-05T19:24:58.256Z,83.12
2018-07-05T19:27:44.992Z,83.73
2018-07-05T19:30:31.488Z,84.36
2018-07-05T19:33:18.297Z,84.60
2018-07-05T19:36:05.628Z,83.91
2018-07-05T19:38:52.368Z,84.29
2018-07-05T19:41:38.962Z,84.78
2018-07-05T19:44:25.763Z,84.30
2018-07-05T19:50:47.986Z,83.40
2018-07-05T19:53:34.415Z,83.26
2018-07-05T19:56:20.879Z,83.64
2018-07-05T19:59:07.807Z,83.69
2018-07-05T20:01:54.701Z,83.44
2018-07-05T20:04:41.077Z,82.86
2018-07-05T20:07:27.719Z,83.17
2018-07-05T20:10:14.326Z,82.80
2018-07-05T20:13:00.807Z,83.17
2018-07-05T20:15:47.333Z,82.63
2018-07-05T20:18:33.912Z,83.02
2018-07-05T20:21:20.487Z,83.09
2018-07-05T20:24:07.319Z,83.09
2018-07-05T20:26:53.923Z,82.06
2018-07-05T20:29:40.508Z,81.84
2018-07-05T20:32:27.037Z,81.76
2018-07-05T20:35:13.884Z,81.22
2018-07-05T20:38:00.501Z,81.37
2018-07-05T20:40:47.251Z,81.55
2018-07-05T20:43:34.000Z,81.23
2018-07-05T20:46:20.572Z,81.32
2018-07-05T20:49:07.111Z,81.22
2018-07-05T20:51:53.818Z,80.64
2018-07-05T20:54:40.228Z,81.62
2018-07-05T20:57:26.878Z,81.73
2018-07-05T21:00:13.363Z,81.27
2018-07-05T21:02:59.964Z,81.30
2018-07-05T21:05:46.580Z,80.97
2018-07-05T21:08:33.396Z,80.80
2018-07-05T21:11:19.992Z,81.16
2018-07-05T21:14:06.598Z,80.85
2018-07-05T21:16:53.514Z,81.38
2018-07-05T21:19:40.250Z,80.79
2018-07-05T21:22:26.778Z,81.58
2018-07-05T21:25:13.826Z,81.92
2018-07-05T21:28:00.256Z,83.06
2018-07-05T21:30:46.616Z,83.35
2018-07-05T21:33:33.222Z,83.77
2018-07-05T21:36:19.647Z,83.34
2018-07-05T21:39:06.686Z,83.50
2018-07-05T21:41:53.257Z,84.24
2018-07-05T21:44:40.024Z,84.75
2018-07-05T21:47:26.676Z,84.38
2018-07-05T21:50:13.420Z,84.44
2018-07-05T21:53:00.757Z,84.70
2018-07-05T21:55:47.262Z,84.53
2018-07-05T21:58:33.825Z,84.31
2018-07-05T22:01:20.437Z,84.63
2018-07-05T22:04:07.127Z,84.46
2018-07-05T22:06:53.788Z,83.47
2018-07-05T22:09:40.103Z,83.45
2018-07-05T22:12:26.655Z,83.30
2018-07-05T22:15:13.277Z,83.09
2018-07-05T22:18:05.347Z,82.99
2018-07-05T22:20:57.095Z,82.87
2018-07-05T22:23:48.742Z,82.70
2018-07-05T22:26:40.435Z,82.86
2018-07-05T22:29:32.207Z,82.45
2018-07-05T22:32:18.925Z,82.52
2018-07-05T22:35:05.625Z,82.39
2018-07-05T22:37:52.132Z,82.35
2018-07-05T22:40:38.713Z,82.47
2018-07-05T22:43:25.231Z,83.18
2018-07-05T22:46:11.830Z,83.22
2018-07-05T22:48:58.390Z,83.27
2018-07-05T22:51:45.053Z,83.73
2018-07-05T22:54:34.539Z,83.75
2018-07-05T22:57:21.291Z,83.88
2018-07-05T23:00:08.686Z,84.09
2018-07-05T23:02:55.288Z,84.56
2018-07-05T23:05:41.677Z,84.22
2018-07-05T23:08:28.269Z,84.43
2018-07-05T23:11:14.757Z,84.28
2018-07-05T23:14:01.234Z,84.89
2018-07-05T23:16:47.531Z,84.49
2018-07-05T23:19:34.106Z,84.53
2018-07-05T23:22:20.463Z,85.48
2018-07-05T23:25:07.113Z,85.19
2018-07-05T23:27:53.619Z,84.77
2018-07-05T23:30:40.279Z,84.75
2018-07-05T23:33:26.811Z,84.86
2018-07-05T23:36:13.321Z,84.92
2018-07-05T23:38:59.937Z,84.45
2018-07-05T23:41:46.533Z,84.64
2018-07-05T23:44:33.035Z,84.91
2018-07-05T23:47:19.479Z,84.46
2018-07-05T23:50:05.885Z,84.50
2018-07-05T23:52:52.679Z,84.57
2018-07-05T23:55:39.301Z,85.17
2018-07-05T23:58:25.799Z,84.56
